AAL38 KMIA-EGLL
Flight info
| Callsign | AAL38 |
|---|---|
| Flight time | N/A |
| Altitude | 35000 |
| Route | FOLZZ3 SNAGY/M082F350 DCT ONGOT DCT DRYED M201 CARAC/N0482F350 DCT PORTI/M082F370 DCT 47N050W 49N040W 51N030W 52N020W DCT LIMRI DCT XETBO/N0468F390 DCT EVRIN DCT JETZI DCT AMFUL DCT ORZEB/N0373F230 P2 SIRIC |
| Aircraft | B77W/H-SDE1E2E3FGHIJ2J3J4J5M1RWXYZ/LB1D1 |
Departure
| Time | 2026-05-04 04:39 |
|---|---|
| Airport | Miami International Airport (KMIA) |
Arrival
| Time | N/A |
|---|---|
| Airport | London Heathrow Airport (EGLL) |
| Time | Latitude | Longitude | Altitude | Speed | Heading |
|---|---|---|---|---|---|
| 2026-05-04 03:34 | 25.79798 | -80.27597 | 20 ft | 0 kts | 177° |
| 2026-05-04 04:19 | 25.79800 | -80.27597 | 20 ft | 1 kts | 177° |
| 2026-05-04 04:20 | 25.79815 | -80.27598 | 20 ft | 2 kts | 177° |
| 2026-05-04 04:20 | 25.79830 | -80.27599 | 20 ft | 2 kts | 180° |
| 2026-05-04 04:20 | 25.79845 | -80.27598 | 20 ft | 2 kts | 190° |
| 2026-05-04 04:20 | 25.79859 | -80.27594 | 20 ft | 2 kts | 197° |
| 2026-05-04 04:21 | 25.79872 | -80.27588 | 20 ft | 2 kts | 205° |
| 2026-05-04 04:21 | 25.79886 | -80.27581 | 20 ft | 2 kts | 212° |
| 2026-05-04 04:21 | 25.79897 | -80.27572 | 20 ft | 2 kts | 220° |
| 2026-05-04 04:21 | 25.79908 | -80.27560 | 20 ft | 2 kts | 227° |
| 2026-05-04 04:22 | 25.79910 | -80.27558 | 20 ft | 1 kts | 229° |
| 2026-05-04 04:22 | 25.79895 | -80.27588 | 20 ft | 5 kts | 254° |
| 2026-05-04 04:22 | 25.79893 | -80.27633 | 20 ft | 5 kts | 268° |
| 2026-05-04 04:22 | 25.79892 | -80.27655 | 20 ft | 0 kts | 267° |
| 2026-05-04 04:23 | 25.79892 | -80.27656 | 20 ft | 0 kts | 267° |
| 2026-05-04 04:28 | 25.79891 | -80.27656 | 20 ft | 0 kts | 267° |
| 2026-05-04 04:28 | 25.79891 | -80.27660 | 20 ft | 1 kts | 267° |
| 2026-05-04 04:28 | 25.79890 | -80.27680 | 20 ft | 3 kts | 267° |
| 2026-05-04 04:29 | 25.79889 | -80.27715 | 20 ft | 5 kts | 267° |
| 2026-05-04 04:29 | 25.79887 | -80.27765 | 20 ft | 6 kts | 268° |
| 2026-05-04 04:29 | 25.79885 | -80.27815 | 20 ft | 6 kts | 268° |
| 2026-05-04 04:29 | 25.79883 | -80.27861 | 20 ft | 5 kts | 268° |
| 2026-05-04 04:30 | 25.79882 | -80.27903 | 20 ft | 5 kts | 268° |
| 2026-05-04 04:30 | 25.79881 | -80.27941 | 20 ft | 4 kts | 268° |
| 2026-05-04 04:30 | 25.79881 | -80.27975 | 20 ft | 4 kts | 277° |
| 2026-05-04 04:30 | 25.79888 | -80.28005 | 20 ft | 3 kts | 287° |
| 2026-05-04 04:31 | 25.79894 | -80.28030 | 20 ft | 3 kts | 282° |
| 2026-05-04 04:31 | 25.79897 | -80.28053 | 20 ft | 3 kts | 273° |
| 2026-05-04 04:31 | 25.79896 | -80.28077 | 20 ft | 3 kts | 268° |
| 2026-05-04 04:31 | 25.79896 | -80.28112 | 20 ft | 4 kts | 281° |
| 2026-05-04 04:32 | 25.79914 | -80.28136 | 20 ft | 3 kts | 335° |
| 2026-05-04 04:32 | 25.79941 | -80.28142 | 20 ft | 5 kts | 354° |
| 2026-05-04 04:32 | 25.79978 | -80.28146 | 20 ft | 5 kts | 354° |
| 2026-05-04 04:32 | 25.80011 | -80.28150 | 20 ft | 4 kts | 350° |
| 2026-05-04 04:33 | 25.80035 | -80.28165 | 20 ft | 3 kts | 313° |
| 2026-05-04 04:33 | 25.80044 | -80.28186 | 20 ft | 2 kts | 275° |
| 2026-05-04 04:33 | 25.80043 | -80.28207 | 20 ft | 3 kts | 267° |
| 2026-05-04 04:33 | 25.80041 | -80.28244 | 20 ft | 6 kts | 266° |
| 2026-05-04 04:34 | 25.80037 | -80.28306 | 20 ft | 9 kts | 266° |
| 2026-05-04 04:34 | 25.80032 | -80.28390 | 20 ft | 12 kts | 267° |
| 2026-05-04 04:34 | 25.80028 | -80.28493 | 20 ft | 14 kts | 268° |
| 2026-05-04 04:34 | 25.80024 | -80.28612 | 20 ft | 16 kts | 268° |
| 2026-05-04 04:35 | 25.80019 | -80.28745 | 20 ft | 18 kts | 268° |
| 2026-05-04 04:35 | 25.80012 | -80.28891 | 20 ft | 19 kts | 267° |
| 2026-05-04 04:35 | 25.80005 | -80.29046 | 20 ft | 20 kts | 267° |
| 2026-05-04 04:35 | 25.79999 | -80.29212 | 20 ft | 22 kts | 268° |
| 2026-05-04 04:36 | 25.79992 | -80.29384 | 20 ft | 21 kts | 266° |
| 2026-05-04 04:36 | 25.79985 | -80.29542 | 20 ft | 19 kts | 268° |
| 2026-05-04 04:36 | 25.79980 | -80.29684 | 20 ft | 17 kts | 268° |
| 2026-05-04 04:36 | 25.79975 | -80.29810 | 20 ft | 15 kts | 267° |
| 2026-05-04 04:37 | 25.80006 | -80.30099 | 20 ft | 11 kts | 326° |
| 2026-05-04 04:37 | 25.80055 | -80.30108 | 20 ft | 4 kts | 34° |
| 2026-05-04 04:38 | 25.80071 | -80.30082 | 20 ft | 4 kts | 76° |
| 2026-05-04 04:38 | 25.80073 | -80.30052 | 20 ft | 4 kts | 86° |
| 2026-05-04 04:38 | 25.80085 | -80.29825 | 20 ft | 66 kts | 88° |
| 2026-05-04 04:38 | 25.80116 | -80.29032 | 20 ft | 138 kts | 88° |
| 2026-05-04 04:39 | 25.80169 | -80.27725 | 54 ft | 197 kts | 86° |
| 2026-05-04 04:39 | 25.80227 | -80.26155 | 754 ft | 205 kts | 90° |
| 2026-05-04 04:39 | 25.79963 | -80.24654 | 1697 ft | 203 kts | 108° |
| 2026-05-04 04:39 | 25.79359 | -80.23158 | 2148 ft | 223 kts | 116° |
| 2026-05-04 04:40 | 25.78592 | -80.21589 | 2601 ft | 242 kts | 119° |
| 2026-05-04 04:40 | 25.77751 | -80.19915 | 3188 ft | 254 kts | 120° |
| 2026-05-04 04:40 | 25.76869 | -80.18154 | 3789 ft | 271 kts | 120° |
| 2026-05-04 04:40 | 25.75956 | -80.16314 | 4606 ft | 277 kts | 120° |
| 2026-05-04 04:41 | 25.75029 | -80.14435 | 5465 ft | 282 kts | 120° |
| 2026-05-04 04:41 | 25.74373 | -80.12371 | 6198 ft | 292 kts | 96° |
| 2026-05-04 04:41 | 25.74576 | -80.10135 | 6951 ft | 298 kts | 69° |
| 2026-05-04 04:41 | 25.75628 | -80.08177 | 7738 ft | 299 kts | 47° |
| 2026-05-04 04:42 | 25.77013 | -80.06452 | 8534 ft | 303 kts | 45° |
| 2026-05-04 04:42 | 25.78435 | -80.04716 | 9302 ft | 309 kts | 45° |
| 2026-05-04 04:42 | 25.79867 | -80.02927 | 10081 ft | 313 kts | 46° |
| 2026-05-04 04:42 | 25.81329 | -80.01081 | 10621 ft | 328 kts | 46° |
| 2026-05-04 04:43 | 25.82873 | -79.99125 | 11031 ft | 346 kts | 46° |
| 2026-05-04 04:43 | 25.84500 | -79.97060 | 11446 ft | 365 kts | 47° |
| 2026-05-04 04:43 | 25.86208 | -79.94890 | 11880 ft | 382 kts | 47° |
| 2026-05-04 04:43 | 25.87989 | -79.92625 | 12350 ft | 398 kts | 47° |
| 2026-05-04 04:44 | 25.89834 | -79.90278 | 12864 ft | 411 kts | 47° |
| 2026-05-04 04:44 | 25.91728 | -79.87867 | 13588 ft | 417 kts | 47° |
| 2026-05-04 04:44 | 25.93643 | -79.85426 | 14323 ft | 423 kts | 47° |
| 2026-05-04 04:44 | 25.95584 | -79.82953 | 15018 ft | 429 kts | 46° |
| 2026-05-04 04:45 | 25.97556 | -79.80439 | 15716 ft | 435 kts | 46° |
| 2026-05-04 04:45 | 25.99551 | -79.77894 | 16414 ft | 441 kts | 47° |
| 2026-05-04 04:45 | 26.01577 | -79.75308 | 17043 ft | 448 kts | 46° |
| 2026-05-04 04:47 | 26.13855 | -79.58682 | 20739 ft | 483 kts | 52° |
| 2026-05-04 04:47 | 26.15797 | -79.55617 | 21326 ft | 488 kts | 52° |
| 2026-05-04 04:47 | 26.17756 | -79.52525 | 21924 ft | 492 kts | 52° |
| 2026-05-04 04:47 | 26.19736 | -79.49398 | 22437 ft | 497 kts | 52° |
| 2026-05-04 04:48 | 26.21732 | -79.46246 | 22969 ft | 502 kts | 52° |
| 2026-05-04 04:49 | 26.30542 | -79.33990 | 24965 ft | 513 kts | 35° |
| 2026-05-04 04:49 | 26.33440 | -79.31673 | 25437 ft | 514 kts | 28° |
| 2026-05-04 04:49 | 26.36457 | -79.29512 | 25905 ft | 518 kts | 28° |
| 2026-05-04 04:49 | 26.39508 | -79.27344 | 26346 ft | 523 kts | 28° |
| 2026-05-04 04:50 | 26.42581 | -79.25159 | 26913 ft | 525 kts | 28° |
| 2026-05-04 04:50 | 26.45664 | -79.22965 | 27407 ft | 529 kts | 28° |
| 2026-05-04 04:50 | 26.48781 | -79.20743 | 27854 ft | 534 kts | 28° |
| 2026-05-04 04:50 | 26.51926 | -79.18501 | 28326 ft | 538 kts | 28° |
| 2026-05-04 04:51 | 26.55093 | -79.16240 | 28721 ft | 544 kts | 28° |
| 2026-05-04 04:51 | 26.58288 | -79.13956 | 29225 ft | 547 kts | 28° |
| 2026-05-04 04:51 | 26.61499 | -79.11659 | 29736 ft | 550 kts | 28° |
| 2026-05-04 04:51 | 26.64712 | -79.09358 | 30374 ft | 549 kts | 28° |
| 2026-05-04 04:52 | 26.67923 | -79.07057 | 31009 ft | 549 kts | 28° |
| 2026-05-04 04:52 | 26.71126 | -79.04760 | 31686 ft | 546 kts | 28° |
| 2026-05-04 04:52 | 26.74310 | -79.02475 | 32249 ft | 545 kts | 28° |
| 2026-05-04 04:52 | 26.77511 | -79.00178 | 32587 ft | 550 kts | 27° |
| 2026-05-04 04:53 | 26.80735 | -78.97862 | 33036 ft | 550 kts | 28° |
| 2026-05-04 04:53 | 26.83969 | -78.95537 | 33555 ft | 550 kts | 27° |
| 2026-05-04 04:53 | 26.87215 | -78.93201 | 34080 ft | 550 kts | 27° |
| 2026-05-04 04:53 | 26.90412 | -78.90898 | 34746 ft | 546 kts | 27° |
| 2026-05-04 04:54 | 26.93611 | -78.88594 | 34990 ft | 549 kts | 27° |
| 2026-05-04 04:54 | 26.96834 | -78.86272 | 34995 ft | 547 kts | 27° |
| 2026-05-04 04:54 | 27.03236 | -78.81652 | 35000 ft | 548 kts | 27° |
| 2026-05-04 04:55 | 27.09663 | -78.77008 | 35004 ft | 549 kts | 27° |
| 2026-05-04 04:55 | 27.16067 | -78.72373 | 34995 ft | 548 kts | 27° |
| 2026-05-04 04:56 | 27.22447 | -78.67749 | 34997 ft | 547 kts | 27° |
| 2026-05-04 04:56 | 27.28897 | -78.63072 | 35016 ft | 552 kts | 27° |
| 2026-05-04 04:57 | 27.35246 | -78.58367 | 35004 ft | 546 kts | 28° |
| 2026-05-04 04:57 | 27.41658 | -78.53596 | 35027 ft | 557 kts | 27° |
| 2026-05-04 04:58 | 27.48068 | -78.48816 | 35024 ft | 550 kts | 28° |
| 2026-05-04 04:58 | 27.54501 | -78.44019 | 35029 ft | 559 kts | 28° |
| 2026-05-04 04:59 | 27.60968 | -78.39187 | 35030 ft | 553 kts | 28° |
| 2026-05-04 04:59 | 27.67380 | -78.34391 | 35032 ft | 555 kts | 29° |
| 2026-05-04 05:00 | 27.73847 | -78.29549 | 35013 ft | 560 kts | 29° |
| 2026-05-04 05:01 | 27.83618 | -78.22217 | 35019 ft | 560 kts | 28° |
| 2026-05-04 05:01 | 27.90110 | -78.17338 | 35039 ft | 566 kts | 28° |
| 2026-05-04 05:02 | 27.96647 | -78.12417 | 35026 ft | 563 kts | 28° |
| 2026-05-04 05:02 | 28.03146 | -78.07517 | 35041 ft | 565 kts | 28° |
| 2026-05-04 05:03 | 28.09727 | -78.02551 | 35044 ft | 569 kts | 29° |
| 2026-05-04 05:04 | 28.22826 | -77.92639 | 35040 ft | 569 kts | 28° |
| 2026-05-04 05:04 | 28.29373 | -77.87672 | 35041 ft | 567 kts | 28° |
| 2026-05-04 05:06 | 28.55544 | -77.67750 | 35057 ft | 568 kts | 29° |
| 2026-05-04 05:07 | 28.62111 | -77.62733 | 35061 ft | 569 kts | 29° |
| 2026-05-04 05:07 | 28.68695 | -77.57695 | 35064 ft | 575 kts | 29° |
| 2026-05-04 05:09 | 28.98414 | -77.34853 | 35081 ft | 574 kts | 28° |
| 2026-05-04 05:10 | 29.05027 | -77.29749 | 35060 ft | 574 kts | 29° |
| 2026-05-04 05:10 | 29.11697 | -77.24595 | 35051 ft | 582 kts | 29° |
| 2026-05-04 05:11 | 29.18359 | -77.19435 | 35048 ft | 578 kts | 30° |
| 2026-05-04 05:11 | 29.25009 | -77.14276 | 35052 ft | 575 kts | 30° |
| 2026-05-04 05:12 | 29.31650 | -77.09119 | 35057 ft | 580 kts | 30° |
| 2026-05-04 05:12 | 29.38310 | -77.03936 | 35065 ft | 577 kts | 30° |
| 2026-05-04 05:13 | 29.44963 | -76.98751 | 35068 ft | 579 kts | 29° |
| 2026-05-04 05:13 | 29.51605 | -76.93566 | 35075 ft | 577 kts | 30° |
| 2026-05-04 05:14 | 29.58250 | -76.88372 | 35083 ft | 579 kts | 30° |
| 2026-05-04 05:14 | 29.64613 | -76.82644 | 35077 ft | 581 kts | 36° |
| 2026-05-04 05:15 | 29.70770 | -76.76610 | 35093 ft | 583 kts | 37° |
| 2026-05-04 05:15 | 29.76917 | -76.70572 | 35093 ft | 581 kts | 37° |
| 2026-05-04 05:16 | 29.83073 | -76.64517 | 35102 ft | 583 kts | 36° |
| 2026-05-04 05:16 | 29.89223 | -76.58459 | 35115 ft | 584 kts | 37° |
| 2026-05-04 05:17 | 29.95393 | -76.52371 | 35115 ft | 582 kts | 37° |
| 2026-05-04 05:17 | 30.01541 | -76.46296 | 35125 ft | 587 kts | 36° |
| 2026-05-04 05:18 | 30.07718 | -76.40181 | 35144 ft | 584 kts | 37° |
| 2026-05-04 05:18 | 30.13910 | -76.34042 | 35114 ft | 587 kts | 38° |
| 2026-05-04 05:19 | 30.20068 | -76.27924 | 35107 ft | 585 kts | 37° |
| 2026-05-04 05:19 | 30.26207 | -76.21817 | 35096 ft | 585 kts | 37° |
| 2026-05-04 05:20 | 30.32385 | -76.15661 | 35111 ft | 586 kts | 38° |
| 2026-05-04 05:20 | 30.38519 | -76.09535 | 35117 ft | 582 kts | 38° |
| 2026-05-04 05:21 | 30.44671 | -76.03383 | 35120 ft | 583 kts | 37° |
| 2026-05-04 05:21 | 30.50799 | -75.97245 | 35126 ft | 586 kts | 38° |
| 2026-05-04 05:22 | 30.56950 | -75.91071 | 35125 ft | 582 kts | 37° |
| 2026-05-04 05:22 | 30.63070 | -75.84919 | 35129 ft | 583 kts | 37° |
| 2026-05-04 05:23 | 30.69221 | -75.78726 | 35124 ft | 586 kts | 37° |
| 2026-05-04 05:23 | 30.75344 | -75.72548 | 35136 ft | 583 kts | 37° |
| 2026-05-04 05:24 | 30.81457 | -75.66371 | 35136 ft | 583 kts | 37° |
| 2026-05-04 05:24 | 30.87562 | -75.60190 | 35147 ft | 582 kts | 37° |
| 2026-05-04 05:25 | 30.93652 | -75.54015 | 35153 ft | 584 kts | 37° |
| 2026-05-04 05:25 | 30.99755 | -75.47814 | 35161 ft | 582 kts | 38° |
| 2026-05-04 05:26 | 31.05855 | -75.41607 | 35164 ft | 585 kts | 37° |
| 2026-05-04 05:26 | 31.11950 | -75.35393 | 35129 ft | 580 kts | 38° |
| 2026-05-04 05:28 | 31.36282 | -75.10476 | 35136 ft | 584 kts | 38° |
| 2026-05-04 05:29 | 31.42350 | -75.04233 | 35129 ft | 579 kts | 37° |
| 2026-05-04 05:29 | 31.48408 | -74.97992 | 35137 ft | 581 kts | 38° |
| 2026-05-04 05:31 | 31.72646 | -74.72903 | 35136 ft | 580 kts | 38° |
| 2026-05-04 05:32 | 31.78704 | -74.66604 | 35144 ft | 583 kts | 38° |
| 2026-05-04 05:33 | 31.87774 | -74.57151 | 35150 ft | 584 kts | 37° |
| 2026-05-04 05:33 | 31.93825 | -74.50830 | 35147 ft | 580 kts | 38° |
| 2026-05-04 05:34 | 31.99849 | -74.44526 | 35162 ft | 584 kts | 38° |
| 2026-05-04 05:34 | 32.05897 | -74.38185 | 35155 ft | 580 kts | 38° |
| 2026-05-04 05:35 | 32.11925 | -74.31853 | 35122 ft | 581 kts | 38° |
| 2026-05-04 05:35 | 32.17934 | -74.25530 | 35120 ft | 580 kts | 38° |
| 2026-05-04 05:36 | 32.23934 | -74.19205 | 35126 ft | 580 kts | 38° |
| 2026-05-04 05:36 | 32.29943 | -74.12860 | 35125 ft | 583 kts | 38° |
| 2026-05-04 05:37 | 32.35953 | -74.06499 | 35126 ft | 578 kts | 38° |
| 2026-05-04 05:37 | 32.41942 | -74.00151 | 35127 ft | 582 kts | 39° |
| 2026-05-04 05:38 | 32.50945 | -73.90584 | 35143 ft | 578 kts | 39° |
| 2026-05-04 05:38 | 32.56918 | -73.84223 | 35133 ft | 580 kts | 38° |
| 2026-05-04 05:39 | 32.65878 | -73.74656 | 35138 ft | 577 kts | 38° |
| 2026-05-04 05:40 | 32.74837 | -73.65066 | 35148 ft | 576 kts | 38° |
| 2026-05-04 05:40 | 32.80774 | -73.58695 | 35150 ft | 580 kts | 38° |
| 2026-05-04 05:41 | 32.86739 | -73.52282 | 35153 ft | 576 kts | 38° |
| 2026-05-04 05:41 | 32.92677 | -73.45886 | 35143 ft | 578 kts | 38° |
| 2026-05-04 05:42 | 32.98643 | -73.39448 | 35161 ft | 578 kts | 38° |
| 2026-05-04 05:42 | 33.04569 | -73.33040 | 35137 ft | 577 kts | 38° |
| 2026-05-04 05:43 | 33.10501 | -73.26615 | 35150 ft | 578 kts | 38° |
| 2026-05-04 05:45 | 33.34237 | -73.00778 | 35138 ft | 578 kts | 38° |
| 2026-05-04 05:47 | 33.57880 | -72.74843 | 35157 ft | 577 kts | 38° |
| 2026-05-04 05:47 | 33.63770 | -72.68351 | 35159 ft | 577 kts | 38° |
| 2026-05-04 05:48 | 33.69649 | -72.61858 | 35164 ft | 574 kts | 38° |
| 2026-05-04 05:48 | 33.75517 | -72.55365 | 35165 ft | 576 kts | 38° |
| 2026-05-04 05:49 | 33.81384 | -72.48861 | 35163 ft | 575 kts | 38° |
| 2026-05-04 05:49 | 33.87248 | -72.42347 | 35169 ft | 573 kts | 39° |
| 2026-05-04 05:51 | 34.10647 | -72.16276 | 35157 ft | 573 kts | 39° |
| 2026-05-04 05:52 | 34.16485 | -72.09752 | 35141 ft | 573 kts | 38° |
| 2026-05-04 05:52 | 34.22321 | -72.03217 | 35149 ft | 573 kts | 38° |
| 2026-05-04 05:54 | 34.45646 | -71.76969 | 35157 ft | 573 kts | 38° |
| 2026-05-04 05:55 | 34.48556 | -71.73679 | 35029 ft | 573 kts | 38° |
| 2026-05-04 05:55 | 34.51460 | -71.70394 | 35151 ft | 575 kts | 38° |
| 2026-05-04 05:55 | 34.57310 | -71.63765 | 35171 ft | 575 kts | 38° |
| 2026-05-04 05:56 | 34.63122 | -71.57164 | 35156 ft | 576 kts | 38° |
| 2026-05-04 05:56 | 34.68963 | -71.50518 | 35151 ft | 575 kts | 38° |
| 2026-05-04 05:57 | 34.74784 | -71.43880 | 35157 ft | 574 kts | 38° |
| 2026-05-04 05:57 | 34.80584 | -71.37254 | 35161 ft | 574 kts | 38° |